East Rochester, NY (14445)

10:58 PM EDT on June 02, 2015 (GMT -0400)
Eaglehead Point | | Change Station
CLOSE
Current Station
Personal Weather Station
Location: East Rochester, NY
Elevation: 407 ft
Nearby Weather Stations

Elev 407 ft 43.11 °N, 77.47 °W | Updated 14 minutes ago

Partly Cloudy
Partly Cloudy
49.3 °F
Feels Like 49 °F
N
0.0
Wind Variable Wind from North

Today
High -- | Low -- °F
--% Chance of Precip.
Yesterday
High -- | Low -- °F
Precip. -- in
5:32 AM 8:43 PM
Full, 100% visible
Pressure 30.24 in
Visibility 10.0 miles
Clouds Few 20000 ft
Windchill 49 °F
Dew Point 46 °F
Humidity 89%
Rainfall 0.15 in
Snow Depth Not available.
UV 0 out of 12
Pollen 8.50 out of 12
Air Quality Not available.
Flu Activity Sporadic
METAR KROC 030254Z 07004KT 10SM FEW200 12/07 A3022 RMK AO2 SLP238 T01170067 51013

More Conditions Fewer Conditions

Pressure 30.24 in
Visibility 10.0 miles
Clouds Few 20000 ft
Windchill 49 °F
Dew Point 46 °F
Humidity 89%
Rainfall 0.15 in
Snow Depth Not available.
UV 0 out of 12
Pollen 8.50 out of 12
Air Quality Not available.
Flu Activity Sporadic
METAR KROC 030254Z 07004KT 10SM FEW200 12/07 A3022 RMK AO2 SLP238 T01170067 51013

More Conditions Fewer Conditions

10-Day Weather Forecast

×

Almanac

Astronomy

Jun. 02, 2015 Rise Set
Actual Time
Civil Twilight
Nautical Twilight
Astronomical Twilight
Moon
Length of Visible Light
Length of Day
Tomorrow will be .
, % of the Moon is Illuminated

Today's Extremes

State Highs State Lows

Community

WunderPhotos

Upload Photos

1,826,126 photos uploaded!

WunderBlogs® & News

Nearby

Air Quality

  Air Quality AQ Index Pollutant
Not available.

Snow Depth

Station Depth Elevation

Earthquake Activity

City Distance Mag. Time & Date
Minimum magnitude displayed is 2.5.

Coastal Water Temperatures

Place Temperature

Stations

Nearby Weather Stations

Station Location Temp. Windchill Dew Point Humidity Wind Precip. Elev Updated Type